EW3360 Weather Reports


Display with metric or nautical units.
time (UTC)temp
F
wind
direction
speed
MPH
gust
MPH
rain 1hr
in
rain 24hr
in
rain mn
in
humidity
%
barometer
mb
20210923030035 50 37 0.0 0.0 0.00 0.32 0.32 98 1012.4
20210923024543 50 37 0.0 0.0 0.00 0.32 0.32 98 1012.4
20210923023018 50 37 0.0 0.0 0.00 0.32 0.32 98 1012.3
20210923021516 51 37 0.0 0.0 0.00 0.32 0.32 98 1012.1
20210923020025 51 37 0.0 0.0 0.00 0.32 0.32 98 1012.3
20210923014554 51 37 0.0 0.0 0.00 0.32 0.32 98 1012.3
20210923013036 52 37 0.0 0.0 0.00 0.32 0.32 98 1012.2
20210923011511 52 37 0.0 0.0 0.00 0.32 0.32 98 1011.9
20210923010008 52 37 0.0 0.0 0.00 0.32 0.32 98 1011.6
20210923004506 53 37 0.0 0.0 0.00 0.32 0.32 98 1011.2
20210923003005 53 37 0.0 0.0 0.00 0.32 0.32 98 1010.9
20210923001501 54 37 0.0 0.0 0.00 0.32 0.32 97 1010.7
20210923000155 54 37 0.0 0.0 0.00 0.32 0.32 97 1010.4
20210922234621 55 37 0.0 0.0 0.00 0.32 0.32 96 1010.4
20210922233152 56 37 0.0 0.0 0.00 0.32 0.32 97 1010.3
20210922231618 57 177 0.0 0.0 0.00 0.32 0.32 95 1010.1
20210922230113 58 150 0.0 0.0 0.00 0.32 0.32 95 1010.1
20210922224635 58 220 0.0 0.0 0.00 0.32 0.32 94 1010.2
20210922223103 59 220 0.0 0.0 0.00 0.32 0.32 93 1010.0
20210922221623 62 154 0.0 5.0 0.00 0.32 0.32 95 1009.9
20210922220158 62 53 0.0 2.0 0.00 0.32 0.32 98 1009.9
20210922214615 62 78 0.0 0.0 0.00 0.32 0.32 97 1009.8
20210922213103 62 64 0.0 0.0 0.00 0.32 0.32 98 1009.8
20210922211616 62 64 0.0 0.0 0.00 0.32 0.32 98 1009.7
20210922210132 61 64 0.0 0.0 0.00 0.32 0.32 98 1009.4
20210922204716 61 64 0.0 0.0 0.00 0.32 0.32 98 1009.3
20210922203035 61 65 0.0 0.0 0.00 0.32 0.32 98 1009.1
20210922201534 61 65 0.0 0.0 0.00 0.32 0.32 98 1009.2
20210922200129 61 65 0.0 0.0 0.00 0.32 0.32 98 1009.3
20210922194609 61 76 0.0 0.0 0.00 0.33 0.32 98 1009.7
20210922193050 61 76 0.0 0.0 0.00 0.33 0.32 98 1009.8
20210922191538 61 38 1.0 8.0 0.00 0.33 0.32 96 1010.2
20210922190051 64 66 0.0 5.0 0.00 0.33 0.32 97 1010.1
20210922184519 65 49 0.0 0.0 0.00 0.37 0.32 97 1010.4
20210922183027 65 13 0.0 0.0 0.02 0.37 0.32 98 1010.4
20210922181535 65 13 0.0 0.0 0.09 0.37 0.32 98 1010.3
20210922180014 65 13 0.0 0.0 0.17 0.37 0.32 98 1010.3
20210922174524 66 13 0.0 0.0 0.19 0.37 0.32 98 1010.3
20210922173047 67 57 0.0 0.0 0.19 0.35 0.30 99 1010.4
20210922171531 67 57 0.0 0.0 0.12 0.27 0.22 99 1010.1
20210922170011 67 57 0.0 0.0 0.05 0.20 0.15 99 1010.6
20210922164507 67 94 0.0 0.0 0.04 0.18 0.13 99 1010.8
20210922163007 67 94 0.0 0.0 0.02 0.16 0.11 99 1010.9
20210922161516 67 94 0.0 0.0 0.01 0.15 0.10 99 1011.2
20210922160033 67 94 0.0 0.0 0.01 0.15 0.10 99 1011.5
20210922154626 67 94 0.0 0.0 0.00 0.14 0.09 99 1011.6
20210922153111 67 94 0.0 0.0 0.00 0.14 0.09 99 1012.0
20210922151659 67 117 0.0 0.0 0.00 0.14 0.09 99 1012.1
20210922150058 67 186 0.0 0.0 0.01 0.14 0.09 99 1012.2
20210922144714 67 36 0.0 0.0 0.01 0.15 0.09 99 1012.3
20210922143122 67 340 0.0 0.0 0.01 0.15 0.09 99 1012.5
20210922141633 66 236 0.0 0.0 0.01 0.15 0.09 100 1012.7
20210922140124 66 236 0.0 0.0 0.00 0.14 0.08 99 1012.9
20210922134556 66 236 0.0 0.0 0.00 0.15 0.08 100 1013.0
20210922133147 66 236 0.0 0.0 0.01 0.15 0.08 99 1012.9
20210922131617 65 236 0.0 0.0 0.02 0.15 0.08 100 1013.0
20210922130202 65 236 0.0 0.0 0.03 0.15 0.08 99 1013.1
20210922124621 65 236 0.0 0.0 0.03 0.18 0.08 99 1013.2
20210922123047 64 236 0.0 0.0 0.03 0.17 0.07 99 1013.3
20210922120039 64 236 0.0 0.0 0.02 0.15 0.05 99 1013.6
20210922114611 64 236 0.0 0.0 0.03 0.18 0.05 99 1013.5
20210922113109 64 236 0.0 0.0 0.02 0.17 0.04 99 1013.5
20210922111544 64 236 0.0 0.0 0.02 0.17 0.04 99 1013.4
20210922110119 64 236 0.0 0.0 0.01 0.16 0.03 99 1013.3
20210922104539 63 236 0.0 0.0 0.00 0.22 0.02 99 1013.4
20210922103045 63 236 0.0 0.0 0.00 0.22 0.02 99 1013.4
20210922101545 63 236 0.0 0.0 0.00 0.22 0.02 99 1013.6
20210922100115 63 236 0.0 0.0 0.00 0.22 0.02 99 1013.7
20210922094556 63 236 0.0 0.0 0.00 0.30 0.02 99 1013.7
20210922093027 63 236 0.0 0.0 0.00 0.30 0.02 99 1013.9
20210922091523 64 236 0.0 0.0 0.00 0.30 0.02 99 1014.0
20210922090021 64 236 0.0 0.0 0.00 0.30 0.02 99 1014.3
20210922084519 64 236 0.0 0.0 0.00 0.37 0.02 99 1014.3
20210922083044 64 236 0.0 0.0 0.00 0.37 0.02 99 1014.4
20210922081523 64 236 0.0 0.0 0.01 0.37 0.02 99 1014.6
20210922080027 64 236 0.0 0.0 0.01 0.37 0.02 99 1014.7
20210922074540 65 236 0.0 0.0 0.01 0.42 0.02 99 1014.9
20210922073010 65 236 0.0 0.0 0.01 0.42 0.02 99 1015.2
20210922071534 65 236 0.0 0.0 0.00 0.41 0.01 99 1015.3
20210922070012 65 236 0.0 0.0 0.00 0.41 0.01 99 1015.5
20210922064527 65 236 0.0 0.0 0.00 0.43 0.01 99 1015.6
20210922063005 65 236 0.0 0.0 0.01 0.43 0.01 99 1016.0
20210922061502 65 236 0.0 0.0 0.01 0.43 0.01 99 1016.3
20210922060119 65 236 0.0 0.0 0.01 0.43 0.01 99 1016.3
20210922054633 65 236 0.0 0.0 0.01 0.61 0.01 99 1016.5
20210922053242 65 236 0.0 0.0 0.00 0.60 0.00 99 1016.4
20210922051751 65 236 0.0 0.0 0.00 0.60 0.00 99 1016.5
20210922050201 65 236 0.0 0.0 0.00 0.60 0.00 99 1016.8
20210922044742 65 236 0.0 0.0 0.00 0.65 0.00 99 1017.1
20210922043110 65 236 0.0 0.0 0.00 0.65 0.00 99 1017.2
20210922041719 65 236 0.0 0.0 0.00 0.65 0.00 99 1017.3
20210922040130 65 236 0.0 0.0 0.00 0.65 0.00 99 1017.4
20210922034710 65 236 0.0 0.0 0.00 0.66 0.65 99 1017.6
20210922033112 65 236 0.0 0.0 0.00 0.66 0.65 99 1017.6
20210922031611 65 236 0.0 0.0 0.00 0.66 0.65 99 1017.8